| time (UTC) | temp C | wind direction | speed KPH | gust KPH | rain 1hr cm | rain 24hr cm | rain mn cm | humidity % | barometer mb |
| 20260905193051 | 35 | 41 | 8.0 | 22.5 | 0.00 | 0.00 | 0.00 | 34 | 998.2 |
| 20260905191548 | 34 | 133 | 16.1 | 24.1 | 0.00 | 0.00 | 0.00 | 35 | 998.5 |
| 20260905190045 | 34 | 210 | 11.3 | 19.3 | 0.00 | 0.00 | 0.00 | 37 | 998.7 |
| 20260905184539 | 34 | 53 | 8.0 | 19.3 | 0.00 | 0.00 | 0.00 | 37 | 998.9 |
| 20260905183038 | 33 | 59 | 9.7 | 22.5 | 0.00 | 0.00 | 0.00 | 38 | 999.1 |
| 20260905181535 | 33 | 305 | 6.4 | 17.7 | 0.00 | 0.00 | 0.00 | 39 | 999.3 |
| 20260905180033 | 33 | 9 | 8.0 | 19.3 | 0.00 | 0.00 | 0.00 | 41 | 999.6 |
| 20260905174537 | 32 | 56 | 6.4 | 16.1 | 0.00 | 0.00 | 0.00 | 43 | 999.8 |
| 20260905173031 | 32 | 335 | 3.2 | 14.5 | 0.00 | 0.00 | 0.00 | 43 | 999.9 |
| 20260905171527 | 31 | 337 | 11.3 | 20.9 | 0.00 | 0.00 | 0.00 | 44 | 1000.0 |
| 20260905170030 | 31 | 11 | 9.7 | 22.5 | 0.00 | 0.00 | 0.00 | 45 | 1000.0 |
| 20260905164529 | 31 | 259 | 11.3 | 19.3 | 0.00 | 0.00 | 0.00 | 46 | 1000.1 |
| 20260905163027 | 31 | 328 | 12.9 | 20.9 | 0.00 | 0.00 | 0.00 | 46 | 1000.1 |
| 20260905161519 | 30 | 294 | 11.3 | 19.3 | 0.00 | 0.00 | 0.00 | 48 | 1000.1 |
| 20260905160044 | 30 | 286 | 11.3 | 19.3 | 0.00 | 0.00 | 0.00 | 49 | 1000.2 |
| 20260905154513 | 29 | 304 | 11.3 | 20.9 | 0.00 | 0.00 | 0.00 | 51 | 1000.2 |
| 20260905153018 | 28 | 279 | 16.1 | 19.3 | 0.00 | 0.00 | 0.00 | 52 | 1000.2 |
| 20260905151509 | 28 | 284 | 11.3 | 24.1 | 0.00 | 0.00 | 0.00 | 54 | 1000.3 |
| 20260905150016 | 27 | 266 | 19.3 | 22.5 | 0.00 | 0.00 | 0.00 | 54 | 1000.3 |
| 20260905144519 | 27 | 257 | 14.5 | 20.9 | 0.00 | 0.00 | 0.00 | 55 | 1000.5 |
| 20260905143003 | 27 | 244 | 16.1 | 22.5 | 0.00 | 0.00 | 0.00 | 56 | 1000.4 |
| 20260905141613 | 26 | 254 | 14.5 | 20.9 | 0.00 | 0.00 | 0.00 | 57 | 1000.4 |
| 20260905140104 | 26 | 262 | 16.1 | 20.9 | 0.00 | 0.00 | 0.00 | 59 | 1000.3 |
| 20260905134607 | 25 | 248 | 16.1 | 19.3 | 0.00 | 0.00 | 0.00 | 59 | 1000.3 |
| 20260905133100 | 25 | 257 | 11.3 | 14.5 | 0.00 | 0.00 | 0.00 | 60 | 1000.1 |
| 20260905131600 | 24 | 243 | 14.5 | 17.7 | 0.00 | 0.00 | 0.00 | 62 | 999.9 |
| 20260905130058 | 24 | 269 | 14.5 | 17.7 | 0.00 | 0.00 | 0.00 | 62 | 999.8 |
| 20260905124555 | 24 | 262 | 9.7 | 12.9 | 0.00 | 0.00 | 0.00 | 62 | 999.7 |
| 20260905123057 | 24 | 249 | 8.0 | 11.3 | 0.00 | 0.00 | 0.00 | 63 | 999.5 |
| 20260905121552 | 24 | 272 | 9.7 | 17.7 | 0.00 | 0.00 | 0.00 | 62 | 999.3 |
| 20260905120057 | 24 | 262 | 14.5 | 20.9 | 0.00 | 0.00 | 0.00 | 61 | 999.2 |
| 20260905114624 | 25 | 269 | 19.3 | 24.1 | 0.00 | 0.00 | 0.00 | 60 | 999.1 |
| 20260905113056 | 25 | 281 | 17.7 | 20.9 | 0.00 | 0.00 | 0.00 | 62 | 999.1 |
| 20260905111553 | 25 | 294 | 16.1 | 17.7 | 0.00 | 0.00 | 0.00 | 60 | 999.0 |
| 20260905110050 | 26 | 288 | 12.9 | 16.1 | 0.00 | 0.00 | 0.00 | 57 | 999.0 |
| 20260905104551 | 26 | 319 | 6.4 | 9.7 | 0.00 | 0.00 | 0.00 | 57 | 998.9 |
| 20260905103046 | 26 | 302 | 12.9 | 14.5 | 0.00 | 0.00 | 0.00 | 55 | 998.8 |
| 20260905101550 | 26 | 18 | 4.8 | 8.0 | 0.00 | 0.00 | 0.00 | 55 | 998.9 |
| 20260905100106 | 25 | 300 | 6.4 | 8.0 | 0.00 | 0.00 | 0.00 | 59 | 998.6 |
| 20260905094603 | 25 | 50 | 4.8 | 12.9 | 0.00 | 0.00 | 0.00 | 62 | 998.9 |
| 20260905093037 | 25 | 269 | 14.5 | 17.7 | 0.00 | 0.00 | 0.00 | 60 | 998.4 |
| 20260905091544 | 26 | 281 | 14.5 | 16.1 | 0.00 | 0.00 | 0.00 | 57 | 998.4 |
| 20260905090033 | 25 | 303 | 14.5 | 17.7 | 0.00 | 0.00 | 0.00 | 58 | 998.6 |
| 20260905084530 | 25 | 301 | 11.3 | 19.3 | 0.00 | 0.00 | 0.00 | 57 | 998.5 |
| 20260905083030 | 26 | 319 | 16.1 | 19.3 | 0.00 | 0.00 | 0.00 | 56 | 998.5 |
| 20260905081530 | 26 | 297 | 17.7 | 20.9 | 0.00 | 0.00 | 0.00 | 54 | 998.5 |
| 20260905080038 | 26 | 312 | 14.5 | 17.7 | 0.00 | 0.00 | 0.00 | 54 | 998.4 |
| 20260905074542 | 26 | 277 | 4.8 | 14.5 | 0.00 | 0.00 | 0.00 | 55 | 998.6 |
| 20260905073042 | 26 | 105 | 4.8 | 17.7 | 0.00 | 0.00 | 0.00 | 59 | 998.8 |
| 20260905071531 | 26 | 257 | 11.3 | 14.5 | 0.00 | 0.00 | 0.00 | 56 | 998.6 |
| 20260905070031 | 27 | 239 | 12.9 | 17.7 | 0.00 | 0.00 | 0.00 | 51 | 998.6 |
| 20260905064529 | 27 | 221 | 12.9 | 17.7 | 0.00 | 0.00 | 0.00 | 51 | 998.5 |
| 20260905063030 | 27 | 217 | 17.7 | 25.7 | 0.00 | 0.00 | 0.00 | 51 | 998.5 |
| 20260905061532 | 27 | 201 | 16.1 | 17.7 | 0.00 | 0.00 | 0.00 | 53 | 998.5 |
| 20260905060128 | 27 | 185 | 14.5 | 20.9 | 0.00 | 0.00 | 0.00 | 54 | 998.6 |
| 20260905054526 | 28 | 175 | 22.5 | 29.0 | 0.00 | 0.00 | 0.00 | 50 | 998.5 |
| 20260905053034 | 28 | 149 | 20.9 | 30.6 | 0.00 | 0.00 | 0.00 | 48 | 998.7 |
| 20260905051529 | 28 | 164 | 25.7 | 33.8 | 0.00 | 0.00 | 0.00 | 47 | 998.6 |
| 20260905050033 | 29 | 153 | 14.5 | 22.5 | 0.00 | 0.00 | 0.00 | 47 | 998.6 |
| 20260905044527 | 30 | 140 | 16.1 | 22.5 | 0.00 | 0.00 | 0.00 | 42 | 998.9 |
| 20260905043033 | 30 | 92 | 8.0 | 22.5 | 0.00 | 0.00 | 0.00 | 40 | 998.9 |
| 20260905041534 | 30 | 298 | 9.7 | 35.4 | 0.00 | 0.00 | 0.00 | 41 | 998.9 |
| 20260905040031 | 30 | 237 | 30.6 | 43.5 | 0.00 | 0.00 | 0.00 | 43 | 998.1 |
| 20260905034540 | 30 | 262 | 20.9 | 25.7 | 0.00 | 0.00 | 0.00 | 45 | 998.2 |
| 20260905033044 | 30 | 299 | 22.5 | 33.8 | 0.00 | 0.00 | 0.00 | 41 | 998.0 |
| 20260905031530 | 32 | 250 | 16.1 | 20.9 | 0.00 | 0.00 | 0.00 | 33 | 997.8 |
| 20260905030029 | 32 | 279 | 9.7 | 12.9 | 0.00 | 0.00 | 0.00 | 35 | 997.7 |
| 20260905024529 | 32 | 273 | 11.3 | 12.9 | 0.00 | 0.00 | 0.00 | 34 | 997.6 |
| 20260905023101 | 32 | 294 | 6.4 | 12.9 | 0.00 | 0.00 | 0.00 | 34 | 997.4 |
| 20260905021526 | 33 | 244 | 11.3 | 16.1 | 0.00 | 0.00 | 0.00 | 33 | 997.1 |
| 20260905020025 | 33 | 232 | 9.7 | 14.5 | 0.00 | 0.00 | 0.00 | 33 | 996.9 |
| 20260905014529 | 33 | 219 | 9.7 | 16.1 | 0.00 | 0.00 | 0.00 | 33 | 996.6 |
| 20260905013029 | 33 | 216 | 14.5 | 17.7 | 0.00 | 0.00 | 0.00 | 33 | 996.6 |
| 20260905011533 | 33 | 219 | 12.9 | 16.1 | 0.00 | 0.00 | 0.00 | 33 | 996.6 |
| 20260905010032 | 33 | 221 | 17.7 | 27.4 | 0.00 | 0.00 | 0.00 | 33 | 996.6 |
| 20260905004525 | 34 | 211 | 22.5 | 25.7 | 0.00 | 0.00 | 0.00 | 32 | 996.6 |
| 20260905003031 | 34 | 219 | 24.1 | 30.6 | 0.00 | 0.00 | 0.00 | 32 | 996.5 |
| 20260905001531 | 33 | 215 | 24.1 | 35.4 | 0.00 | 0.00 | 0.00 | 34 | 996.3 |
| 20260905000030 | 35 | 194 | 22.5 | 35.4 | 0.00 | 0.00 | 0.00 | 32 | 996.3 |
| 20260904234531 | 35 | 207 | 27.4 | 38.6 | 0.00 | 0.00 | 0.00 | 32 | 996.1 |
| 20260904233017 | 34 | 218 | 30.6 | 37.0 | 0.00 | 0.00 | 0.00 | 33 | 996.1 |
| 20260904231517 | 34 | 203 | 35.4 | 41.8 | 0.00 | 0.00 | 0.00 | 33 | 995.9 |
| 20260904230029 | 33 | 209 | 37.0 | 48.3 | 0.00 | 0.00 | 0.00 | 35 | 996.0 |
| 20260904224540 | 36 | 261 | 16.1 | 25.7 | 0.00 | 0.00 | 0.00 | 28 | 995.8 |
| 20260904223045 | 36 | 240 | 8.0 | 24.1 | 0.00 | 0.00 | 0.00 | 28 | 995.9 |
| 20260904221533 | 36 | 166 | 14.5 | 29.0 | 0.00 | 0.00 | 0.00 | 27 | 996.1 |
| 20260904220021 | 36 | 61 | 3.2 | 22.5 | 0.00 | 0.00 | 0.00 | 28 | 996.3 |
| 20260904214508 | 36 | 313 | 4.8 | 25.7 | 0.00 | 0.00 | 0.00 | 28 | 996.4 |
| 20260904213015 | 36 | 257 | 3.2 | 20.9 | 0.00 | 0.00 | 0.00 | 28 | 996.5 |
| 20260904211511 | 36 | 293 | 11.3 | 24.1 | 0.00 | 0.00 | 0.00 | 28 | 996.6 |
| 20260904210012 | 36 | 153 | 14.5 | 30.6 | 0.00 | 0.00 | 0.00 | 28 | 996.8 |
| 20260904204507 | 35 | 212 | 16.1 | 25.7 | 0.00 | 0.00 | 0.00 | 31 | 997.0 |
| 20260904203100 | 35 | 155 | 12.9 | 25.7 | 0.00 | 0.00 | 0.00 | 31 | 997.2 |
| 20260904201557 | 35 | 241 | 20.9 | 32.2 | 0.00 | 0.00 | 0.00 | 30 | 997.5 |
| 20260904200058 | 35 | 229 | 17.7 | 37.0 | 0.00 | 0.00 | 0.00 | 31 | 997.6 |
| 20260904194558 | 35 | 173 | 3.2 | 19.3 | 0.00 | 0.00 | 0.00 | 31 | 997.9 |